Time;durP1;ratioP1;P1;durP2;ratioP2;P2;SDS_P1;SDS_P2;PMS_P1;PMS_P2;Temp;Humidity;BMP_temperature;BMP_pressure;BME280_temperature;BME280_humidity;BME280_pressure;Samples;Min_cycle;Max_cycle;Signal;HPM_P1;HPM_P2
2022/08/03 00:00:16;;;;;;;2.65;0.68;;;;;;;;;;4862905;29;20416;-67
2022/08/03 00:02:42;;;;;;;1.33;0.70;;;;;;;;;;4862697;29;20036;-67
2022/08/03 00:05:08;;;;;;;1.20;0.68;;;;;;;;;;4862956;29;20044;-68
2022/08/03 00:07:35;;;;;;;0.95;0.70;;;;;;;;;;4862484;29;20038;-67
2022/08/03 00:10:01;;;;;;;2.75;0.55;;;;;;;;;;4862677;29;20036;-67
2022/08/03 00:12:27;;;;;;;1.40;0.93;;;;;;;;;;4862550;29;20445;-67
2022/08/03 00:14:54;;;;;;;0.77;0.68;;;;;;;;;;4862903;29;20028;-68
2022/08/03 00:17:20;;;;;;;1.30;0.80;;;;;;;;;;4862451;29;20033;-67
2022/08/03 00:19:46;;;;;;;2.45;0.60;;;;;;;;;;4862180;29;20064;-67
2022/08/03 00:22:12;;;;;;;5.82;0.80;;;;;;;;;;4845746;29;20040;-67
2022/08/03 00:24:39;;;;;;;1.30;0.85;;;;;;;;;;4862394;29;20028;-67
2022/08/03 00:27:05;;;;;;;2.55;0.90;;;;;;;;;;4862514;29;20026;-67
2022/08/03 00:29:31;;;;;;;1.23;0.73;;;;;;;;;;4862378;29;20029;-67
2022/08/03 00:31:57;;;;;;;0.82;0.70;;;;;;;;;;4862283;29;20648;-67
2022/08/03 00:34:24;;;;;;;1.33;0.70;;;;;;;;;;4862237;29;20037;-67
2022/08/03 00:36:50;;;;;;;2.53;0.73;;;;;;;;;;4861888;29;20038;-67
2022/08/03 00:39:16;;;;;;;0.98;0.80;;;;;;;;;;4862129;29;20068;-67
2022/08/03 00:41:43;;;;;;;2.25;0.80;;;;;;;;;;4862298;29;20025;-67
2022/08/03 00:44:09;;;;;;;1.50;0.93;;;;;;;;;;4861429;29;20029;-67
2022/08/03 00:46:35;;;;;;;1.25;0.88;;;;;;;;;;4861923;29;20041;-67
2022/08/03 00:49:02;;;;;;;0.88;0.80;;;;;;;;;;4861978;29;20038;-67
2022/08/03 00:51:28;;;;;;;1.60;0.80;;;;;;;;;;4841154;29;20036;-67
2022/08/03 00:53:54;;;;;;;0.60;0.60;;;;;;;;;;4843416;29;20545;-67
2022/08/03 00:56:21;;;;;;;5.05;0.90;;;;;;;;;;4843685;29;20036;-68
2022/08/03 00:58:47;;;;;;;1.20;1.08;;;;;;;;;;4843331;29;20040;-67
2022/08/03 01:01:14;;;;;;;1.45;1.02;;;;;;;;;;4843265;29;20030;-67
2022/08/03 01:03:40;;;;;;;2.45;1.00;;;;;;;;;;4843262;29;20040;-67
2022/08/03 01:06:07;;;;;;;2.38;1.10;;;;;;;;;;4843175;29;20026;-68
2022/08/03 01:08:52;;;;;;;2.35;0.82;;;;;;;;;;4843229;29;20032;-67
2022/08/03 01:11:24;;;;;;;1.35;0.80;;;;;;;;;;4843076;29;20089;-67
2022/08/03 01:13:51;;;;;;;1.25;0.82;;;;;;;;;;4843147;29;20036;-67
2022/08/03 01:16:17;;;;;;;0.82;0.82;;;;;;;;;;4826714;29;20037;-67
2022/08/03 01:18:43;;;;;;;2.67;0.93;;;;;;;;;;4823008;29;20054;-67
2022/08/03 01:21:14;;;;;;;1.42;0.95;;;;;;;;;;4813516;29;20037;-67
2022/08/03 01:23:56;;;;;;;2.13;0.90;;;;;;;;;;4806479;29;20038;-67
2022/08/03 01:26:41;;;;;;;1.55;0.88;;;;;;;;;;4806612;29;20035;-67
2022/08/03 01:29:10;;;;;;;3.75;1.05;;;;;;;;;;4806335;29;20023;-67
2022/08/03 01:31:38;;;;;;;0.63;0.63;;;;;;;;;;4806381;29;20041;-68
2022/08/03 01:34:07;;;;;;;6.72;0.77;;;;;;;;;;4806364;29;20035;-67
2022/08/03 01:36:36;;;;;;;1.77;0.90;;;;;;;;;;4806254;29;20600;-67
2022/08/03 01:39:03;;;;;;;2.53;0.88;;;;;;;;;;4806212;29;20037;-67
2022/08/03 01:41:34;;;;;;;1.95;0.90;;;;;;;;;;4806233;29;20386;-67
2022/08/03 01:44:01;;;;;;;;;;;;;;;;;;4806699;29;20437;-67
2022/08/03 01:46:28;;;;;;;1.33;0.90;;;;;;;;;;4806338;29;19909;-67
2022/08/03 01:48:54;;;;;;;1.85;1.00;;;;;;;;;;4805882;29;20392;-67
2022/08/03 01:51:21;;;;;;;3.95;1.13;;;;;;;;;;4806080;29;20029;-67
2022/08/03 01:53:50;;;;;;;2.30;1.17;;;;;;;;;;4805974;29;20489;-67
2022/08/03 01:56:17;;;;;;;1.98;1.00;;;;;;;;;;4805916;29;20482;-67
2022/08/03 01:58:44;;;;;;;0.90;0.90;;;;;;;;;;4805934;29;20420;-67
2022/08/03 02:01:12;;;;;;;3.42;1.10;;;;;;;;;;4805874;29;20023;-67
2022/08/03 02:03:40;;;;;;;4.05;0.88;;;;;;;;;;4804734;29;20086;-67
2022/08/03 02:06:09;;;;;;;1.52;1.10;;;;;;;;;;4806107;29;20022;-68
2022/08/03 02:08:36;;;;;;;1.92;0.80;;;;;;;;;;4805802;29;20574;-67
2022/08/03 02:11:03;;;;;;;2.63;0.85;;;;;;;;;;4805543;29;20031;-67
2022/08/03 02:13:30;;;;;;;2.17;1.10;;;;;;;;;;4805717;29;20034;-67
2022/08/03 02:15:57;;;;;;;1.80;1.00;;;;;;;;;;4805665;29;20033;-67
2022/08/03 02:18:25;;;;;;;3.13;1.10;;;;;;;;;;4821672;29;20054;-67
2022/08/03 02:20:51;;;;;;;3.22;1.10;;;;;;;;;;4860279;29;20029;-67
2022/08/03 02:23:18;;;;;;;0.93;0.88;;;;;;;;;;4860331;29;20033;-67
2022/08/03 02:25:46;;;;;;;2.28;0.90;;;;;;;;;;4860292;29;20032;-67
2022/08/03 02:28:16;;;;;;;1.42;1.20;;;;;;;;;;4860377;29;20041;-67
2022/08/03 02:30:43;;;;;;;;;;;;;;;;;;4860636;29;20499;-67
2022/08/03 02:33:11;;;;;;;1.70;1.13;;;;;;;;;;4859691;29;19912;-67
2022/08/03 02:35:39;;;;;;;1.30;1.20;;;;;;;;;;4860471;29;20029;-67
2022/08/03 02:38:07;;;;;;;1.88;1.10;;;;;;;;;;4860137;29;20045;-67
2022/08/03 02:40:33;;;;;;;2.83;1.10;;;;;;;;;;4860068;29;20506;-67
2022/08/03 02:43:03;;;;;;;1.70;1.20;;;;;;;;;;4860036;29;20402;-67
2022/08/03 02:45:31;;;;;;;1.67;1.30;;;;;;;;;;4860171;29;20036;-67
2022/08/03 02:47:59;;;;;;;1.55;1.10;;;;;;;;;;4859645;29;20040;-67
2022/08/03 02:50:26;;;;;;;2.63;1.00;;;;;;;;;;4859945;29;20428;-67
2022/08/03 02:52:52;;;;;;;1.98;1.27;;;;;;;;;;4843260;29;20030;-67
2022/08/03 02:55:20;;;;;;;1.65;1.02;;;;;;;;;;4859920;29;20628;-67
2022/08/03 02:57:47;;;;;;;2.20;1.17;;;;;;;;;;4859925;29;20038;-67
2022/08/03 03:00:14;;;;;;;2.80;1.20;;;;;;;;;;4859874;29;20072;-67
2022/08/03 03:02:40;;;;;;;3.60;1.10;;;;;;;;;;4859841;29;20398;-67
2022/08/03 03:05:08;;;;;;;7.50;1.30;;;;;;;;;;4859741;29;20037;-67
2022/08/03 03:07:35;;;;;;;1.75;1.20;;;;;;;;;;4859390;29;20032;-67
2022/08/03 03:10:02;;;;;;;2.03;1.10;;;;;;;;;;4860028;29;20029;-67
2022/08/03 03:12:29;;;;;;;4.43;1.20;;;;;;;;;;4859494;29;20048;-67
2022/08/03 03:14:55;;;;;;;2.03;1.40;;;;;;;;;;4859516;29;20047;-67
2022/08/03 03:17:22;;;;;;;1.88;1.20;;;;;;;;;;4859586;29;20045;-67
2022/08/03 03:19:49;;;;;;;1.35;1.23;;;;;;;;;;4859353;29;20541;-67
2022/08/03 03:22:16;;;;;;;2.65;1.20;;;;;;;;;;4859660;29;20029;-67
2022/08/03 03:24:44;;;;;;;1.60;1.20;;;;;;;;;;4859667;29;20394;-67
2022/08/03 03:27:11;;;;;;;2.63;0.90;;;;;;;;;;4859632;29;20032;-67
2022/08/03 03:29:37;;;;;;;1.73;1.20;;;;;;;;;;4842763;29;20036;-67
2022/08/03 03:32:04;;;;;;;2.33;1.20;;;;;;;;;;4859607;29;20394;-67
2022/08/03 03:34:30;;;;;;;3.50;1.50;;;;;;;;;;4859492;29;20022;-67
2022/08/03 03:36:57;;;;;;;2.80;1.17;;;;;;;;;;4859593;29;20034;-67
2022/08/03 03:39:23;;;;;;;4.82;1.30;;;;;;;;;;4859586;29;20068;-67
2022/08/03 03:41:49;;;;;;;1.42;1.10;;;;;;;;;;4859676;29;20025;-67
2022/08/03 03:44:16;;;;;;;5.78;1.13;;;;;;;;;;4859372;29;20030;-67
2022/08/03 03:46:42;;;;;;;3.88;1.33;;;;;;;;;;4859582;29;20030;-67
2022/08/03 03:49:08;;;;;;;3.40;1.13;;;;;;;;;;4859675;29;20034;-67
2022/08/03 03:51:35;;;;;;;3.53;1.50;;;;;;;;;;4859433;29;20033;-67
2022/08/03 03:54:05;;;;;;;2.72;1.17;;;;;;;;;;4859725;29;20037;-67
2022/08/03 03:56:32;;;;;;;1.30;1.20;;;;;;;;;;4859250;29;20034;-67
2022/08/03 03:58:58;;;;;;;1.38;1.05;;;;;;;;;;4859142;29;20050;-67
2022/08/03 04:01:25;;;;;;;5.50;1.25;;;;;;;;;;4859350;29;20049;-68
2022/08/03 04:03:51;;;;;;;3.05;1.23;;;;;;;;;;4859375;29;20029;-67
2022/08/03 04:11:50;;;;;;;2.22;1.08;;;;;;;;;;4859336;29;20047;-67
2022/08/03 04:14:28;;;;;;;1.98;1.30;;;;;;;;;;4858939;29;20365;-67
2022/08/03 04:17:05;;;;;;;3.60;1.42;;;;;;;;;;4859276;29;20045;-67
2022/08/03 04:19:35;;;;;;;1.60;1.35;;;;;;;;;;4859592;29;20049;-67
2022/08/03 04:22:06;;;;;;;4.10;1.20;;;;;;;;;;4862211;29;20491;-67
2022/08/03 04:24:53;;;;;;;3.05;1.15;;;;;;;;;;4862592;29;20030;-67
2022/08/03 04:27:25;;;;;;;2.83;1.20;;;;;;;;;;4862046;29;20445;-67
2022/08/03 04:29:52;;;;;;;2.33;1.38;;;;;;;;;;4862485;29;20041;-67
2022/08/03 04:32:19;;;;;;;14.32;8.98;;;;;;;;;;4862154;29;20033;-67
2022/08/03 04:34:46;;;;;;;6.80;2.28;;;;;;;;;;4862321;29;20483;-67
2022/08/03 04:37:14;;;;;;;4.43;1.65;;;;;;;;;;4862036;29;20487;-67
2022/08/03 04:39:42;;;;;;;9.45;2.45;;;;;;;;;;4862256;29;20038;-67
2022/08/03 04:42:11;;;;;;;5.57;1.90;;;;;;;;;;4861736;29;20037;-67
2022/08/03 04:44:39;;;;;;;2.33;1.38;;;;;;;;;;4862095;29;20042;-67
2022/08/03 04:47:06;;;;;;;2.75;1.27;;;;;;;;;;4862063;29;20037;-67
2022/08/03 04:49:32;;;;;;;1.83;1.40;;;;;;;;;;4862123;29;20495;-67
2022/08/03 04:51:58;;;;;;;1.75;1.50;;;;;;;;;;4862188;29;20032;-67
2022/08/03 04:54:25;;;;;;;3.40;1.30;;;;;;;;;;4861947;29;20030;-67
2022/08/03 04:56:51;;;;;;;2.67;1.33;;;;;;;;;;4861852;29;20046;-67
2022/08/03 04:59:17;;;;;;;12.27;1.80;;;;;;;;;;4861811;29;20031;-67
2022/08/03 05:01:44;;;;;;;3.85;1.20;;;;;;;;;;4861702;29;20040;-67
2022/08/03 05:04:10;;;;;;;7.72;1.48;;;;;;;;;;4861924;29;20032;-67
2022/08/03 05:06:36;;;;;;;2.72;1.40;;;;;;;;;;4861942;29;20022;-67
2022/08/03 05:09:03;;;;;;;3.15;1.20;;;;;;;;;;4861883;29;20033;-67
2022/08/03 05:11:29;;;;;;;3.47;1.42;;;;;;;;;;4861449;29;20048;-67
2022/08/03 05:13:56;;;;;;;3.33;1.45;;;;;;;;;;4861617;29;20536;-67
2022/08/03 05:16:24;;;;;;;2.35;1.60;;;;;;;;;;4861466;29;20036;-67
2022/08/03 05:18:51;;;;;;;5.85;1.58;;;;;;;;;;4861465;29;20050;-67
2022/08/03 05:21:17;;;;;;;4.35;1.40;;;;;;;;;;4844877;29;20051;-67
2022/08/03 05:23:43;;;;;;;3.22;1.23;;;;;;;;;;4861424;29;20350;-67
2022/08/03 05:26:13;;;;;;;4.38;1.30;;;;;;;;;;4861248;29;20056;-67
2022/08/03 05:28:39;;;;;;;2.55;1.40;;;;;;;;;;4861362;29;20089;-67
2022/08/03 05:31:06;;;;;;;17.85;1.77;;;;;;;;;;4860892;29;20069;-67
2022/08/03 05:33:32;;;;;;;9.77;1.65;;;;;;;;;;4861194;29;20021;-67
2022/08/03 05:35:58;;;;;;;5.80;1.50;;;;;;;;;;4861060;29;20495;-67
2022/08/03 05:38:25;;;;;;;8.85;1.70;;;;;;;;;;4860867;29;20045;-67
2022/08/03 05:40:51;;;;;;;7.10;2.17;;;;;;;;;;4860902;29;20029;-67
2022/08/03 05:43:18;;;;;;;11.85;1.70;;;;;;;;;;4861002;29;20107;-67
2022/08/03 05:45:44;;;;;;;15.98;1.70;;;;;;;;;;4861025;29;20026;-67
2022/08/03 05:48:10;;;;;;;9.68;1.77;;;;;;;;;;4860957;29;20387;-67
2022/08/03 05:50:36;;;;;;;13.07;1.90;;;;;;;;;;4860901;29;20033;-67
2022/08/03 05:53:03;;;;;;;10.07;1.50;;;;;;;;;;4860952;29;20037;-67
2022/08/03 05:55:29;;;;;;;19.75;2.00;;;;;;;;;;4860530;29;20526;-67
2022/08/03 05:57:55;;;;;;;9.63;1.80;;;;;;;;;;4860686;29;20384;-67
2022/08/03 06:00:22;;;;;;;5.03;1.83;;;;;;;;;;4860712;29;20036;-67
2022/08/03 06:02:48;;;;;;;19.27;1.90;;;;;;;;;;4860747;29;20542;-67
2022/08/03 06:05:14;;;;;;;13.05;1.88;;;;;;;;;;4860608;29;20034;-67
2022/08/03 06:07:41;;;;;;;17.67;1.65;;;;;;;;;;4860512;29;20025;-67
2022/08/03 06:10:07;;;;;;;10.63;2.00;;;;;;;;;;4848573;29;20018;-67
2022/08/03 06:12:39;;;;;;;5.93;1.30;;;;;;;;;;4843454;29;20037;-63
2022/08/03 06:15:06;;;;;;;6.20;1.55;;;;;;;;;;4849645;29;20029;-63
2022/08/03 06:17:33;;;;;;;17.75;1.88;;;;;;;;;;4834233;29;20112;-63
2022/08/03 06:19:59;;;;;;;9.43;1.83;;;;;;;;;;4851467;29;20402;-62
2022/08/03 06:22:25;;;;;;;6.20;1.70;;;;;;;;;;4840372;29;20480;-63
2022/08/03 06:24:52;;;;;;;6.43;1.77;;;;;;;;;;4840915;29;20082;-63
2022/08/03 06:27:18;;;;;;;6.90;1.40;;;;;;;;;;4841402;29;20054;-63
2022/08/03 06:29:44;;;;;;;3.25;1.58;;;;;;;;;;4838666;29;20045;-63
2022/08/03 06:32:11;;;;;;;10.18;1.42;;;;;;;;;;4841419;29;20029;-63
2022/08/03 06:34:37;;;;;;;8.60;1.58;;;;;;;;;;4841254;29;20026;-63
2022/08/03 06:37:03;;;;;;;3.15;1.60;;;;;;;;;;4841025;29;20040;-63
2022/08/03 06:39:30;;;;;;;8.35;1.90;;;;;;;;;;4841065;29;20034;-63
2022/08/03 06:41:56;;;;;;;4.43;1.60;;;;;;;;;;4840242;29;20030;-63
2022/08/03 06:44:23;;;;;;;7.50;1.45;;;;;;;;;;4840946;29;20038;-63
2022/08/03 06:46:50;;;;;;;8.40;1.50;;;;;;;;;;4841189;29;20026;-63
2022/08/03 06:49:17;;;;;;;7.05;1.88;;;;;;;;;;4841170;29;20025;-63
2022/08/03 06:51:43;;;;;;;3.53;1.63;;;;;;;;;;4849304;29;20387;-63
2022/08/03 06:54:11;;;;;;;3.80;1.60;;;;;;;;;;4841292;29;20029;-63
2022/08/03 06:56:37;;;;;;;4.40;1.63;;;;;;;;;;4840603;29;20044;-63
2022/08/03 06:59:03;;;;;;;3.35;1.63;;;;;;;;;;4840443;29;20376;-63
2022/08/03 07:01:30;;;;;;;9.40;2.40;;;;;;;;;;4840661;29;20097;-63
2022/08/03 07:03:56;;;;;;;4.13;1.80;;;;;;;;;;4840772;29;20060;-63
2022/08/03 07:06:22;;;;;;;9.68;1.85;;;;;;;;;;4840955;29;20081;-63
2022/08/03 07:08:49;;;;;;;4.30;1.40;;;;;;;;;;4840787;29;20022;-63
2022/08/03 07:11:15;;;;;;;5.35;1.70;;;;;;;;;;4840974;29;20033;-63
2022/08/03 07:13:42;;;;;;;4.50;1.23;;;;;;;;;;4840991;29;20022;-63
2022/08/03 07:16:08;;;;;;;3.33;1.60;;;;;;;;;;4840713;29;20399;-63
2022/08/03 07:18:37;;;;;;;10.05;1.88;;;;;;;;;;4843074;29;20058;-63
2022/08/03 07:21:04;;;;;;;2.70;1.50;;;;;;;;;;4849645;29;20533;-74
2022/08/03 07:23:30;;;;;;;4.00;1.60;;;;;;;;;;4841061;29;20044;-72
2022/08/03 07:25:56;;;;;;;4.30;1.60;;;;;;;;;;4840817;29;20037;-71
2022/08/03 07:28:23;;;;;;;2.92;1.40;;;;;;;;;;4840276;29;20034;-72
2022/08/03 07:30:49;;;;;;;3.85;1.58;;;;;;;;;;4840317;29;20042;-72
2022/08/03 07:33:15;;;;;;;12.32;1.60;;;;;;;;;;4840877;29;20045;-73
2022/08/03 07:35:42;;;;;;;4.32;1.40;;;;;;;;;;4839747;29;20030;-73
2022/08/03 07:38:08;;;;;;;8.38;1.92;;;;;;;;;;4840265;29;20046;-73
2022/08/03 07:40:34;;;;;;;3.83;1.20;;;;;;;;;;4839935;29;20062;-73
2022/08/03 07:43:02;;;;;;;3.90;1.48;;;;;;;;;;4839793;29;20036;-73
2022/08/03 07:45:29;;;;;;;4.20;1.45;;;;;;;;;;4840349;29;20040;-74
2022/08/03 07:47:55;;;;;;;5.40;1.95;;;;;;;;;;4840623;29;20026;-90
2022/08/03 07:50:21;;;;;;;2.90;1.55;;;;;;;;;;4840424;29;20037;-86
2022/08/03 07:52:48;;;;;;;17.17;2.10;;;;;;;;;;4839950;29;20032;-73
2022/08/03 07:55:24;;;;;;;5.07;1.55;;;;;;;;;;4826742;29;20044;-84
2022/08/03 07:57:59;;;;;;;9.02;1.90;;;;;;;;;;4844295;29;20033;-83
2022/08/03 08:00:26;;;;;;;13.48;1.77;;;;;;;;;;4843504;29;20036;-84
2022/08/03 08:02:52;;;;;;;2.67;1.40;;;;;;;;;;4843999;29;20038;-83
2022/08/03 08:05:18;;;;;;;2.95;1.20;;;;;;;;;;4843967;29;20086;-78
2022/08/03 08:07:45;;;;;;;16.88;2.38;;;;;;;;;;4843913;29;20038;-79
2022/08/03 08:10:11;;;;;;;7.40;1.63;;;;;;;;;;4843837;29;20041;-76
2022/08/03 08:12:39;;;;;;;16.45;3.10;;;;;;;;;;4844218;29;20033;-81
2022/08/03 08:15:05;;;;;;;8.70;1.90;;;;;;;;;;4843567;29;20036;-88
2022/08/03 08:17:40;;;;;;;7.05;1.58;;;;;;;;;;4843686;29;20085;-84
2022/08/03 08:20:07;;;;;;;22.13;3.30;;;;;;;;;;4850325;29;20029;-83
2022/08/03 08:22:33;;;;;;;38.30;3.97;;;;;;;;;;4840967;29;20048;-79
2022/08/03 08:24:59;;;;;;;8.65;1.50;;;;;;;;;;4843735;29;20030;-71
2022/08/03 08:27:25;;;;;;;3.00;1.25;;;;;;;;;;4843957;29;20457;-79
2022/08/03 08:29:52;;;;;;;1.90;1.20;;;;;;;;;;4843329;29;20030;-86
2022/08/03 08:32:18;;;;;;;8.00;1.50;;;;;;;;;;4843167;29;20022;-85
2022/08/03 08:34:44;;;;;;;2.20;1.30;;;;;;;;;;4826577;29;20030;-85
2022/08/03 08:37:11;;;;;;;7.45;1.50;;;;;;;;;;4843401;29;20048;-85
2022/08/03 08:39:37;;;;;;;3.03;1.50;;;;;;;;;;4827019;29;20022;-84
2022/08/03 08:42:04;;;;;;;8.90;1.55;;;;;;;;;;4843371;29;20037;-85
2022/08/03 08:44:30;;;;;;;2.95;1.30;;;;;;;;;;4843040;29;20105;-77
2022/08/03 08:46:57;;;;;;;3.47;1.70;;;;;;;;;;4843430;29;20026;-76
2022/08/03 08:49:26;;;;;;;13.95;1.90;;;;;;;;;;4842973;29;20042;-76
2022/08/03 08:51:54;;;;;;;3.15;1.27;;;;;;;;;;4843385;29;20026;-76
2022/08/03 08:54:21;;;;;;;3.10;1.58;;;;;;;;;;4839737;29;20029;-76
2022/08/03 08:56:51;;;;;;;11.13;1.55;;;;;;;;;;4832824;29;20058;-76
2022/08/03 08:59:18;;;;;;;2.75;1.40;;;;;;;;;;4841662;29;20048;-77
2022/08/03 09:01:44;;;;;;;5.85;1.40;;;;;;;;;;4842496;29;20026;-77
2022/08/03 09:04:10;;;;;;;4.25;1.58;;;;;;;;;;4842738;29;20037;-77
2022/08/03 09:06:37;;;;;;;3.72;1.50;;;;;;;;;;4841766;29;20500;-77
2022/08/03 09:09:03;;;;;;;4.63;1.73;;;;;;;;;;4842446;29;20026;-77
2022/08/03 09:11:29;;;;;;;13.27;2.00;;;;;;;;;;4844932;29;20037;-77
2022/08/03 09:13:56;;;;;;;8.95;1.77;;;;;;;;;;4842360;29;20488;-77
2022/08/03 09:16:22;;;;;;;6.35;1.77;;;;;;;;;;4842389;29;20106;-77
2022/08/03 09:18:50;;;;;;;3.58;1.40;;;;;;;;;;4847477;29;20053;-77
2022/08/03 09:21:28;;;;;;;5.65;1.30;;;;;;;;;;4860951;29;20030;-77
2022/08/03 09:23:56;;;;;;;2.83;1.40;;;;;;;;;;4860953;29;20043;-77
2022/08/03 09:26:22;;;;;;;5.72;1.35;;;;;;;;;;4860728;29;20382;-77
2022/08/03 09:28:54;;;;;;;6.45;1.60;;;;;;;;;;4860969;29;20029;-77
2022/08/03 09:31:28;;;;;;;3.70;1.38;;;;;;;;;;4846386;29;20038;-77
2022/08/03 09:33:58;;;;;;;4.72;1.45;;;;;;;;;;4841929;29;20050;-77
2022/08/03 09:36:42;;;;;;;2.03;1.38;;;;;;;;;;4828244;29;20381;-77
2022/08/03 09:39:12;;;;;;;2.03;1.20;;;;;;;;;;4842094;29;20451;-77
2022/08/03 09:41:39;;;;;;;4.85;1.30;;;;;;;;;;4841989;29;20415;-77
2022/08/03 09:44:06;;;;;;;2.97;1.23;;;;;;;;;;4842430;29;20037;-77
2022/08/03 09:46:46;;;;;;;2.28;1.52;;;;;;;;;;4841780;29;20022;-78
2022/08/03 09:49:13;;;;;;;5.05;1.60;;;;;;;;;;4841965;29;20528;-78
2022/08/03 09:51:40;;;;;;;3.35;1.40;;;;;;;;;;4841802;29;20056;-77
2022/08/03 09:54:06;;;;;;;4.97;1.58;;;;;;;;;;4841982;29;20480;-77
2022/08/03 09:56:40;;;;;;;3.25;1.52;;;;;;;;;;4840743;29;20070;-78
2022/08/03 09:59:06;;;;;;;1.52;1.30;;;;;;;;;;4841730;29;20085;-77
2022/08/03 10:01:34;;;;;;;2.58;1.30;;;;;;;;;;4841371;29;20074;-77
2022/08/03 10:04:00;;;;;;;3.03;1.50;;;;;;;;;;4841646;29;20022;-78
2022/08/03 10:06:26;;;;;;;4.00;1.30;;;;;;;;;;4840923;29;20030;-78
2022/08/03 10:09:06;;;;;;;2.97;1.20;;;;;;;;;;4841823;29;20123;-78
2022/08/03 10:11:33;;;;;;;2.25;1.33;;;;;;;;;;4841725;29;20381;-78
2022/08/03 10:14:03;;;;;;;1.40;1.08;;;;;;;;;;4841823;29;20036;-78
2022/08/03 10:16:34;;;;;;;2.05;1.30;;;;;;;;;;4841650;29;20044;-78
2022/08/03 10:19:01;;;;;;;2.20;1.38;;;;;;;;;;4848346;29;20049;-79
2022/08/03 10:21:32;;;;;;;6.72;1.70;;;;;;;;;;4859927;29;20055;-79
2022/08/03 10:23:59;;;;;;;1.73;1.40;;;;;;;;;;4860005;29;20025;-78
2022/08/03 10:26:26;;;;;;;4.55;1.33;;;;;;;;;;4860021;29;20029;-78
2022/08/03 10:28:53;;;;;;;10.02;1.70;;;;;;;;;;4860128;29;20034;-78
2022/08/03 10:31:21;;;;;;;6.53;1.40;;;;;;;;;;4851174;29;20030;-78
2022/08/03 10:33:49;;;;;;;4.60;1.50;;;;;;;;;;4841354;29;20398;-79
2022/08/03 10:36:16;;;;;;;4.78;1.42;;;;;;;;;;4841418;29;20022;-78
2022/08/03 10:38:53;;;;;;;2.33;1.27;;;;;;;;;;4841364;29;20041;-78
2022/08/03 10:41:20;;;;;;;4.32;1.45;;;;;;;;;;4841171;29;20049;-79
2022/08/03 10:43:56;;;;;;;2.33;1.55;;;;;;;;;;4840547;29;20032;-78
2022/08/03 10:46:22;;;;;;;3.13;1.50;;;;;;;;;;4824763;29;20400;-78
2022/08/03 10:48:51;;;;;;;4.03;1.60;;;;;;;;;;4841328;29;20034;-78
2022/08/03 10:51:17;;;;;;;3.17;1.35;;;;;;;;;;4841114;29;20381;-78
2022/08/03 10:53:44;;;;;;;2.55;1.40;;;;;;;;;;4841003;29;20030;-78
2022/08/03 10:59:14;;;;;;;3.22;1.42;;;;;;;;;;4840761;29;20419;-79
2022/08/03 11:01:50;;;;;;;4.30;1.25;;;;;;;;;;4841274;29;20038;-78
2022/08/03 11:04:18;;;;;;;2.53;1.60;;;;;;;;;;4824790;29;20041;-79
2022/08/03 11:06:44;;;;;;;2.33;1.30;;;;;;;;;;4840400;29;20056;-78
2022/08/03 11:09:16;;;;;;;5.47;1.23;;;;;;;;;;4840705;29;20109;-79
2022/08/03 11:11:43;;;;;;;1.95;1.30;;;;;;;;;;4840745;29;20022;-79
2022/08/03 11:14:09;;;;;;;3.45;1.48;;;;;;;;;;4840903;29;20038;-78
2022/08/03 11:16:36;;;;;;;1.77;1.33;;;;;;;;;;4840994;29;20034;-78
2022/08/03 11:19:04;;;;;;;5.07;1.30;;;;;;;;;;4841654;29;20101;-78
2022/08/03 11:21:49;;;;;;;2.95;1.33;;;;;;;;;;4823742;29;20046;-78
2022/08/03 11:24:33;;;;;;;4.05;1.50;;;;;;;;;;4840920;29;20492;-78
2022/08/03 11:27:15;;;;;;;4.18;1.30;;;;;;;;;;4841091;29;20030;-78
2022/08/03 11:29:56;;;;;;;2.90;1.52;;;;;;;;;;4843208;29;20077;-78
2022/08/03 11:32:44;;;;;;;2.90;1.33;;;;;;;;;;4844616;29;20028;-78
2022/08/03 11:35:17;;;;;;;1.63;1.40;;;;;;;;;;4844585;29;20036;-78
2022/08/03 11:37:59;;;;;;;2.63;1.40;;;;;;;;;;4844377;29;20110;-78
2022/08/03 11:40:43;;;;;;;2.78;1.45;;;;;;;;;;4844164;29;20026;-78
2022/08/03 11:43:22;;;;;;;2.22;1.60;;;;;;;;;;4844291;29;20028;-78
2022/08/03 11:46:02;;;;;;;2.47;1.45;;;;;;;;;;4844344;29;20040;-78
2022/08/03 11:48:48;;;;;;;4.13;1.70;;;;;;;;;;4844221;29;20038;-78
2022/08/03 11:51:19;;;;;;;3.40;1.40;;;;;;;;;;4844131;29;20041;-78
2022/08/03 11:53:48;;;;;;;4.47;1.52;;;;;;;;;;4844358;29;20030;-78
2022/08/03 11:56:15;;;;;;;6.82;1.70;;;;;;;;;;4844081;29;20026;-78
2022/08/03 11:58:48;;;;;;;2.03;1.45;;;;;;;;;;4843861;29;20049;-78
2022/08/03 12:01:17;;;;;;;2.35;1.60;;;;;;;;;;4843998;29;20026;-78
2022/08/03 12:03:43;;;;;;;3.28;1.60;;;;;;;;;;4844238;29;20037;-78
2022/08/03 12:06:10;;;;;;;2.85;1.90;;;;;;;;;;4844276;29;20030;-78
2022/08/03 12:08:37;;;;;;;6.20;1.55;;;;;;;;;;4844258;29;20030;-78
2022/08/03 12:11:05;;;;;;;4.15;1.40;;;;;;;;;;4843555;29;20030;-78
2022/08/03 12:13:40;;;;;;;3.47;1.60;;;;;;;;;;4843752;29;20029;-78
2022/08/03 12:16:07;;;;;;;7.30;1.50;;;;;;;;;;4843931;29;20030;-78
2022/08/03 12:18:34;;;;;;;6.88;1.80;;;;;;;;;;4846995;29;20060;-78
2022/08/03 12:21:10;;;;;;;8.38;1.60;;;;;;;;;;4862317;29;20056;-78
2022/08/03 12:23:37;;;;;;;4.38;1.58;;;;;;;;;;4862110;29;20030;-78
2022/08/03 12:26:09;;;;;;;5.72;1.60;;;;;;;;;;4861922;29;20089;-78
2022/08/03 12:28:35;;;;;;;2.20;1.50;;;;;;;;;;4862087;29;20025;-78
2022/08/03 12:31:06;;;;;;;5.38;1.90;;;;;;;;;;4862060;29;20039;-79
2022/08/03 12:33:52;;;;;;;2.42;1.65;;;;;;;;;;4861892;29;20032;-78
2022/08/03 12:36:18;;;;;;;2.03;1.70;;;;;;;;;;4861854;29;20021;-78
2022/08/03 12:38:53;;;;;;;3.25;1.60;;;;;;;;;;4861921;29;20525;-79
2022/08/03 12:41:26;;;;;;;2.92;1.63;;;;;;;;;;4860244;29;20111;-79
2022/08/03 12:43:53;;;;;;;2.10;1.80;;;;;;;;;;4862011;29;20044;-78
2022/08/03 12:46:20;;;;;;;4.22;1.77;;;;;;;;;;4861537;29;20387;-78
2022/08/03 12:48:59;;;;;;;2.90;1.40;;;;;;;;;;4861870;29;20036;-79
2022/08/03 12:51:26;;;;;;;5.57;1.70;;;;;;;;;;4857877;29;20409;-78
2022/08/03 12:53:53;;;;;;;3.28;1.73;;;;;;;;;;4843133;29;20501;-78
2022/08/03 12:56:19;;;;;;;4.18;1.80;;;;;;;;;;4842676;29;20512;-79
2022/08/03 12:58:49;;;;;;;4.47;1.83;;;;;;;;;;4843034;29;20044;-79
2022/08/03 13:01:15;;;;;;;6.47;1.92;;;;;;;;;;4826314;29;20022;-79
2022/08/03 13:03:47;;;;;;;2.53;1.60;;;;;;;;;;4842811;29;20044;-78
2022/08/03 13:06:14;;;;;;;3.70;1.85;;;;;;;;;;4843058;29;20021;-78
2022/08/03 13:08:41;;;;;;;5.72;1.88;;;;;;;;;;4843260;29;20026;-78
2022/08/03 13:11:19;;;;;;;4.35;1.60;;;;;;;;;;4842614;29;20026;-78
2022/08/03 13:13:46;;;;;;;4.10;1.80;;;;;;;;;;4842881;29;20082;-78
2022/08/03 13:16:12;;;;;;;2.20;1.73;;;;;;;;;;4842996;29;20022;-78
2022/08/03 13:18:38;;;;;;;2.00;1.60;;;;;;;;;;4846687;29;20048;-78
2022/08/03 13:21:05;;;;;;;3.22;1.80;;;;;;;;;;4860828;29;20029;-79
2022/08/03 13:23:31;;;;;;;4.47;1.63;;;;;;;;;;4861612;29;20040;-79
2022/08/03 13:25:58;;;;;;;1.80;1.60;;;;;;;;;;4861192;29;20035;-79
2022/08/03 13:28:24;;;;;;;2.35;1.52;;;;;;;;;;4860914;29;20032;-79
2022/08/03 13:30:50;;;;;;;3.33;1.77;;;;;;;;;;4860804;29;20033;-79
2022/08/03 13:33:17;;;;;;;1.60;1.50;;;;;;;;;;4844191;29;20038;-79
2022/08/03 13:35:43;;;;;;;2.70;1.77;;;;;;;;;;4842433;29;20028;-79
2022/08/03 13:38:10;;;;;;;3.90;1.70;;;;;;;;;;4841720;29;20048;-79
2022/08/03 13:40:37;;;;;;;2.55;1.67;;;;;;;;;;4842426;29;20040;-78
2022/08/03 13:43:03;;;;;;;4.78;1.85;;;;;;;;;;4842119;29;20041;-79
2022/08/03 13:45:29;;;;;;;3.75;1.95;;;;;;;;;;4842471;29;20034;-79
2022/08/03 13:47:56;;;;;;;2.47;1.52;;;;;;;;;;4842169;29;20046;-79
2022/08/03 13:50:22;;;;;;;5.88;2.05;;;;;;;;;;4842045;29;20054;-79
2022/08/03 13:52:48;;;;;;;6.80;2.25;;;;;;;;;;4841858;29;20033;-78
2022/08/03 13:55:15;;;;;;;4.03;1.90;;;;;;;;;;4841954;29;20034;-79
2022/08/03 13:57:41;;;;;;;2.95;2.00;;;;;;;;;;4841940;29;20041;-78
2022/08/03 14:00:08;;;;;;;2.97;2.10;;;;;;;;;;4842101;29;20018;-80
2022/08/03 14:02:34;;;;;;;5.72;1.83;;;;;;;;;;4842060;29;20037;-78
2022/08/03 14:05:00;;;;;;;3.58;1.95;;;;;;;;;;4841825;29;20022;-78
2022/08/03 14:07:26;;;;;;;4.30;2.10;;;;;;;;;;4841490;29;20514;-77
2022/08/03 14:09:53;;;;;;;2.33;1.80;;;;;;;;;;4842019;29;20050;-78
2022/08/03 14:12:19;;;;;;;5.60;2.25;;;;;;;;;;4841859;29;20022;-78
2022/08/03 14:14:45;;;;;;;3.67;2.00;;;;;;;;;;4841972;29;20048;-79
2022/08/03 14:17:12;;;;;;;3.78;2.15;;;;;;;;;;4841477;29;20028;-79
2022/08/03 14:19:38;;;;;;;5.85;1.80;;;;;;;;;;4853115;29;20045;-78
2022/08/03 14:22:04;;;;;;;4.93;1.80;;;;;;;;;;4859805;29;20030;-78
2022/08/03 14:24:31;;;;;;;4.95;1.95;;;;;;;;;;4859899;29;20037;-79
2022/08/03 14:26:57;;;;;;;2.80;1.92;;;;;;;;;;4860016;29;20032;-78
2022/08/03 14:29:23;;;;;;;4.95;1.98;;;;;;;;;;4860329;29;20018;-78
2022/08/03 14:31:49;;;;;;;2.20;1.70;;;;;;;;;;4860369;29;20051;-78
2022/08/03 14:34:16;;;;;;;2.83;1.77;;;;;;;;;;4860106;29;20053;-79
2022/08/03 14:36:42;;;;;;;2.55;1.90;;;;;;;;;;4859888;29;20041;-79
2022/08/03 14:39:08;;;;;;;3.33;2.05;;;;;;;;;;4843503;29;20052;-78
2022/08/03 14:41:35;;;;;;;4.18;2.10;;;;;;;;;;4860063;29;20554;-79
2022/08/03 14:44:01;;;;;;;5.35;1.90;;;;;;;;;;4859995;29;20036;-79
2022/08/03 14:46:27;;;;;;;5.30;2.20;;;;;;;;;;4860355;29;20025;-79
2022/08/03 14:48:54;;;;;;;3.42;2.03;;;;;;;;;;4859939;29;20506;-79
2022/08/03 14:51:20;;;;;;;3.65;2.38;;;;;;;;;;4860011;29;20026;-79
2022/08/03 14:53:46;;;;;;;8.77;2.33;;;;;;;;;;4859819;29;20026;-79
2022/08/03 14:56:13;;;;;;;4.18;2.28;;;;;;;;;;4859957;29;20037;-78